createdAt,value
2023-01-27T00:01:23.570Z,102659.97
2023-01-27T00:06:27.684Z,102668.03
2023-01-27T00:11:50.511Z,102671.63
2023-01-27T00:16:57.032Z,102660.19
2023-01-27T00:22:17.318Z,102668.88
2023-01-27T00:27:19.054Z,102684.69
2023-01-27T00:32:41.823Z,102681.94
2023-01-27T00:37:47.306Z,102687.81
2023-01-27T00:42:51.995Z,102689.41
2023-01-27T00:47:57.506Z,102695.47
2023-01-27T00:53:02.300Z,102708.81
2023-01-27T00:58:05.690Z,102710.78
2023-01-27T01:03:07.589Z,102716.19
2023-01-27T01:08:11.736Z,102721.66
2023-01-27T01:13:16.574Z,102726.00
2023-01-27T01:18:18.378Z,102724.28
2023-01-27T01:23:24.926Z,102723.38
2023-01-27T01:28:26.757Z,102720.88
2023-01-27T01:33:33.907Z,102729.72
2023-01-27T01:38:40.795Z,102736.97
2023-01-27T01:43:46.179Z,102735.16
2023-01-27T01:49:00.059Z,102740.53
2023-01-27T01:54:04.589Z,102744.06
2023-01-27T01:59:12.123Z,102751.25
2023-01-27T02:04:20.020Z,102751.53
2023-01-27T02:09:37.764Z,102743.75
2023-01-27T02:14:40.206Z,102736.75
2023-01-27T02:20:02.967Z,102745.63
2023-01-27T02:25:15.953Z,102746.75
2023-01-27T02:30:19.290Z,102740.63
2023-01-27T02:35:33.402Z,102739.97
2023-01-27T02:40:39.359Z,102746.19
2023-01-27T02:45:41.248Z,102747.97
2023-01-27T02:50:47.668Z,102747.13
2023-01-27T02:55:53.191Z,102749.19
2023-01-27T03:00:57.149Z,102754.81
2023-01-27T03:06:01.263Z,102755.88
2023-01-27T03:11:03.832Z,102773.88
2023-01-27T03:16:25.335Z,102766.13
2023-01-27T03:21:28.592Z,102775.97
2023-01-27T03:26:30.892Z,102776.03
2023-01-27T03:31:34.241Z,102780.28
2023-01-27T03:37:01.890Z,102786.28
2023-01-27T03:42:27.913Z,102791.38
2023-01-27T03:47:30.545Z,102802.91
2023-01-27T03:52:35.525Z,102796.66
2023-01-27T03:57:39.333Z,102795.31
2023-01-27T04:03:04.351Z,102794.63
2023-01-27T04:08:09.227Z,102805.41
2023-01-27T04:13:13.412Z,102809.84
2023-01-27T04:18:16.054Z,102808.13
2023-01-27T04:23:17.772Z,102807.28
2023-01-27T04:28:37.273Z,102813.69
2023-01-27T04:33:46.330Z,102811.28
2023-01-27T04:38:51.330Z,102819.06
2023-01-27T04:43:53.333Z,102815.75
2023-01-27T04:48:57.709Z,102816.00
2023-01-27T04:53:59.775Z,102828.28
2023-01-27T04:59:08.842Z,102826.47
2023-01-27T05:04:10.672Z,102837.03
2023-01-27T05:09:14.976Z,102834.41
2023-01-27T05:14:19.555Z,102837.91
2023-01-27T05:19:23.578Z,102836.03
2023-01-27T05:24:27.647Z,102831.88
2023-01-27T05:29:29.547Z,102832.97
2023-01-27T05:34:34.084Z,102830.47
2023-01-27T05:39:35.842Z,102841.03
2023-01-27T05:44:39.592Z,102842.16
2023-01-27T05:49:43.591Z,102846.66
2023-01-27T05:54:45.604Z,102844.19
2023-01-27T05:59:49.661Z,102854.59
2023-01-27T06:04:53.474Z,102851.75
2023-01-27T06:09:55.144Z,102863.75
2023-01-27T06:15:02.833Z,102860.44
2023-01-27T06:20:11.591Z,102864.97
2023-01-27T06:25:16.671Z,102883.41
2023-01-27T06:30:18.564Z,102890.31
2023-01-27T06:35:24.907Z,102904.31
2023-01-27T06:40:32.928Z,102904.31
2023-01-27T06:45:34.743Z,102908.72
2023-01-27T06:50:38.734Z,102914.97
2023-01-27T06:55:41.855Z,102918.63
2023-01-27T07:00:50.437Z,102917.69
2023-01-27T07:05:54.681Z,102927.34
2023-01-27T07:10:56.456Z,102929.97
2023-01-27T07:16:01.630Z,102944.06
2023-01-27T07:21:05.994Z,102936.19
2023-01-27T07:26:19.181Z,102940.56
2023-01-27T07:31:29.536Z,102953.78
2023-01-27T07:36:33.611Z,102961.53
2023-01-27T07:41:35.303Z,102964.97
2023-01-27T07:46:37.044Z,102959.59
2023-01-27T07:51:43.494Z,102959.34
2023-01-27T07:56:45.197Z,102956.53
2023-01-27T08:01:49.267Z,102962.69
2023-01-27T08:06:51.114Z,102959.94
2023-01-27T08:11:58.001Z,102971.22
2023-01-27T08:17:03.302Z,102980.72
2023-01-27T08:22:05.242Z,102985.69
2023-01-27T08:27:08.289Z,102995.13
2023-01-27T08:32:15.184Z,102996.88
2023-01-27T08:37:19.412Z,103001.84
2023-01-27T08:42:21.787Z,102997.91
2023-01-27T08:47:26.298Z,103003.97
2023-01-27T08:52:30.963Z,103007.53
2023-01-27T08:57:34.237Z,103018.31
2023-01-27T09:02:45.643Z,103028.97
2023-01-27T09:07:51.705Z,103029.47
2023-01-27T09:12:58.830Z,103026.91
2023-01-27T09:18:00.512Z,103029.00
2023-01-27T09:23:02.219Z,103025.44
2023-01-27T09:28:06.815Z,103033.38
2023-01-27T09:33:09.096Z,103031.53
2023-01-27T09:38:15.090Z,103033.72
2023-01-27T09:43:46.662Z,103032.50
2023-01-27T09:49:14.107Z,103033.16
2023-01-27T09:54:24.524Z,103043.16
2023-01-27T09:59:43.743Z,103036.31
2023-01-27T10:05:02.440Z,103029.22
2023-01-27T10:10:31.235Z,103036.66
2023-01-27T10:15:40.015Z,103032.91
2023-01-27T10:20:47.106Z,103043.44
2023-01-27T10:26:02.062Z,103042.59
2023-01-27T10:31:22.611Z,103041.75
2023-01-27T10:36:26.661Z,103039.47
2023-01-27T10:41:55.744Z,103032.63
2023-01-27T10:47:07.441Z,103042.84
2023-01-27T10:52:13.486Z,103037.28
2023-01-27T10:57:28.689Z,103039.59
2023-01-27T11:02:57.459Z,103041.16
2023-01-27T11:08:04.136Z,103043.03
2023-01-27T11:13:08.825Z,103028.66
2023-01-27T11:18:17.896Z,103027.47
2023-01-27T11:23:22.276Z,103026.03
2023-01-27T11:28:37.535Z,103028.50
2023-01-27T11:34:00.320Z,103031.72
2023-01-27T11:39:04.745Z,103023.13
2023-01-27T11:44:15.057Z,103016.38
2023-01-27T11:49:29.022Z,103014.31
2023-01-27T11:54:38.685Z,103005.84
2023-01-27T11:59:46.704Z,102997.84
2023-01-27T12:04:59.985Z,103000.72
2023-01-27T12:10:01.890Z,103004.16
2023-01-27T12:15:05.392Z,103001.69
2023-01-27T12:20:30.618Z,103008.09
2023-01-27T12:25:47.884Z,102992.97
2023-01-27T12:31:00.408Z,103001.00
2023-01-27T12:36:10.745Z,102995.25
2023-01-27T12:41:23.666Z,102995.25
2023-01-27T12:46:27.168Z,102991.75
2023-01-27T12:51:41.082Z,102991.75
2023-01-27T12:56:43.136Z,102993.97
2023-01-27T13:01:57.763Z,102986.66
2023-01-27T13:07:02.742Z,102975.88
2023-01-27T13:12:30.443Z,102979.88
2023-01-27T13:17:45.056Z,102965.69
2023-01-27T13:22:49.205Z,102963.13
2023-01-27T13:27:57.756Z,102968.66
2023-01-27T13:33:16.853Z,102980.22
2023-01-27T13:38:25.611Z,102975.88
2023-01-27T13:43:33.687Z,102985.72
2023-01-27T13:48:40.681Z,102986.63
2023-01-27T13:53:43.625Z,102982.94
2023-01-27T13:59:21.827Z,102981.06
2023-01-27T14:04:59.722Z,102976.63
2023-01-27T14:10:25.772Z,102986.63
2023-01-27T14:15:38.053Z,102986.03
2023-01-27T14:20:50.321Z,102991.41
2023-01-27T14:26:12.505Z,102989.88
2023-01-27T14:31:20.176Z,102994.94
2023-01-27T14:36:33.098Z,102999.63
2023-01-27T14:41:44.982Z,102997.47
2023-01-27T14:47:11.695Z,102995.19
2023-01-27T14:52:34.778Z,103000.72
2023-01-27T14:57:56.796Z,102999.97
2023-01-27T15:03:23.916Z,102999.00
2023-01-27T15:08:58.588Z,103006.34
2023-01-27T15:14:03.915Z,103004.88
2023-01-27T15:19:35.945Z,103002.56
2023-01-27T15:24:46.061Z,103010.91
2023-01-27T15:29:48.451Z,103017.31
2023-01-27T15:34:56.031Z,103012.97
2023-01-27T15:40:06.085Z,103008.06
2023-01-27T15:45:26.491Z,103017.16
2023-01-27T15:50:31.466Z,103022.78
2023-01-27T15:55:37.186Z,103030.25
2023-01-27T16:00:43.748Z,103024.44
2023-01-27T16:05:49.451Z,103023.34
2023-01-27T16:10:51.890Z,103036.88
2023-01-27T16:16:18.497Z,103030.28
2023-01-27T16:21:41.219Z,103038.56
2023-01-27T16:26:56.389Z,103034.16
2023-01-27T16:32:05.925Z,103041.31
2023-01-27T16:37:26.608Z,103038.56
2023-01-27T16:42:31.549Z,103036.94
2023-01-27T16:47:55.132Z,103045.13
2023-01-27T16:52:57.183Z,103051.56
2023-01-27T16:58:04.358Z,103056.16
2023-01-27T17:03:18.387Z,103062.34
2023-01-27T17:08:27.712Z,103064.56
2023-01-27T17:13:45.658Z,103072.91
2023-01-27T17:18:52.769Z,103067.94
2023-01-27T17:24:09.552Z,103073.13
2023-01-27T17:29:17.981Z,103074.00
2023-01-27T17:34:23.568Z,103073.91
2023-01-27T17:39:28.761Z,103082.78
2023-01-27T17:44:35.612Z,103083.81
2023-01-27T17:49:40.990Z,103076.00
2023-01-27T17:54:50.219Z,103083.31
2023-01-27T17:59:56.611Z,103089.81
2023-01-27T18:05:04.724Z,103085.84
2023-01-27T18:10:47.704Z,103100.81
2023-01-27T18:16:03.827Z,103093.75
2023-01-27T18:21:14.577Z,103101.59
2023-01-27T18:26:22.174Z,103090.97
2023-01-27T18:31:31.362Z,103099.72
2023-01-27T18:36:39.699Z,103098.25
2023-01-27T18:41:47.232Z,103112.59
2023-01-27T18:46:49.095Z,103110.91
2023-01-27T18:51:51.003Z,103117.25
2023-01-27T18:56:55.186Z,103122.59
2023-01-27T19:01:59.808Z,103119.88
2023-01-27T19:07:01.642Z,103119.00
2023-01-27T19:12:05.921Z,103115.50
2023-01-27T19:17:18.044Z,103110.22
2023-01-27T19:22:20.816Z,103116.50
2023-01-27T19:27:28.929Z,103107.97
2023-01-27T19:32:30.721Z,103108.03
2023-01-27T19:37:35.073Z,103115.94
2023-01-27T19:42:37.088Z,103116.00
2023-01-27T19:47:43.979Z,103113.69
2023-01-27T19:52:48.296Z,103103.44
2023-01-27T19:57:53.974Z,103106.09
2023-01-27T20:02:57.759Z,103092.03
2023-01-27T20:08:00.484Z,103098.06
2023-01-27T20:13:05.019Z,103101.88
2023-01-27T20:18:22.888Z,103096.00
2023-01-27T20:23:25.699Z,103103.19
2023-01-27T20:28:29.966Z,103099.69
2023-01-27T20:33:34.113Z,103091.25
2023-01-27T20:38:36.021Z,103098.38
2023-01-27T20:43:42.694Z,103104.63
2023-01-27T20:48:46.720Z,103110.84
2023-01-27T20:53:49.460Z,103108.91
2023-01-27T20:58:54.306Z,103101.50
2023-01-27T21:03:56.123Z,103099.31
2023-01-27T21:09:00.202Z,103097.03
2023-01-27T21:14:01.882Z,103098.22
2023-01-27T21:19:09.641Z,103102.63
2023-01-27T21:24:13.530Z,103104.88
2023-01-27T21:29:17.863Z,103104.91
2023-01-27T21:34:19.883Z,103082.91
2023-01-27T21:39:24.300Z,103089.53
2023-01-27T21:44:46.490Z,103088.38
2023-01-27T21:50:04.037Z,103088.75
2023-01-27T21:55:10.891Z,103085.97
2023-01-27T22:00:13.802Z,103084.16
2023-01-27T22:05:17.783Z,103081.88
2023-01-27T22:10:27.495Z,103086.72
2023-01-27T22:15:31.837Z,103090.28
2023-01-27T22:20:39.219Z,103090.91
2023-01-27T22:25:48.266Z,103097.56
2023-01-27T22:30:56.131Z,103103.66
2023-01-27T22:36:05.052Z,103095.56
2023-01-27T22:41:12.059Z,103088.97
2023-01-27T22:46:14.445Z,103078.75
2023-01-27T22:51:20.738Z,103087.56
2023-01-27T22:56:25.500Z,103089.41
2023-01-27T23:01:27.519Z,103084.81
2023-01-27T23:06:36.654Z,103085.63
2023-01-27T23:11:43.227Z,103078.47
2023-01-27T23:16:45.675Z,103070.25
2023-01-27T23:21:52.157Z,103069.94
2023-01-27T23:26:58.963Z,103072.09
2023-01-27T23:32:00.884Z,103077.88
2023-01-27T23:37:03.001Z,103067.88
2023-01-27T23:42:08.267Z,103078.06
2023-01-27T23:47:12.753Z,103071.50
2023-01-27T23:52:16.932Z,103069.25
2023-01-27T23:57:18.792Z,103073.16
